Terminal Aerodrome Forecast
Issued by NWS

Home | Current Version | Previous Version | Text Only | Print | Product List | Glossary On
Versions: 1 2 3 4 5 6 7 8 9 10 11 12 13 14 15 16 17 18 19 20 21 22
225
FTUS46 KLOX 212331
TAFLGB
TAF
KLGB 212331Z 2200/2224 19006KT P6SM BKN200
     FM220200 29005KT P6SM BKN200
     FM220400 VRB03KT P6SM BKN150
     FM222100 26007KT P6SM SCT250=

USA.gov is the U.S. government's official web portal to all federal, state and local government web resources and services.